Terminal Aerodrome Forecast
Issued by NWS

Home | Current Version | Previous Version | Text Only | Print | Product List | Glossary On
Versions: 1 2 3 4 5 6 7 8 9 10 11 12 13 14 15 16 17 18 19 20 21 22 23 24 25 26 27 28 29 30 31 32 33 34 35 36
000
FTUS44 KFWD 252320
TAFDAL
TAF
KDAL 252320Z 2600/2624 02007KT P6SM VCSH SCT015 BKN025
     FM260200 01014KT P6SM VCSH OVC015
      TEMPO 2602/2606 5SM -SHRA
     FM261200 36014KT P6SM VCSH BKN025
     FM261700 36014KT P6SM OVC050
     FM262300 01009KT P6SM SCT080=

USA.gov is the U.S. government's official web portal to all federal, state and local government web resources and services.